sensor_id;sensor_type;location;lat;lon;timestamp;temperature;humidity
37158;DHT22;23050;51.776;22.638;2023-04-25T00:00:56;10.00;99.90
37158;DHT22;23050;51.776;22.638;2023-04-25T00:03:21;10.00;99.90
37158;DHT22;23050;51.776;22.638;2023-04-25T00:05:47;10.00;99.90
37158;DHT22;23050;51.776;22.638;2023-04-25T00:08:13;10.00;99.90
37158;DHT22;23050;51.776;22.638;2023-04-25T00:10:38;9.90;99.90
37158;DHT22;23050;51.776;22.638;2023-04-25T00:13:04;10.00;99.90
37158;DHT22;23050;51.776;22.638;2023-04-25T00:15:29;10.00;99.90
37158;DHT22;23050;51.776;22.638;2023-04-25T00:17:57;10.00;99.90
37158;DHT22;23050;51.776;22.638;2023-04-25T00:20:23;10.10;99.90
37158;DHT22;23050;51.776;22.638;2023-04-25T00:22:50;10.10;99.90
37158;DHT22;23050;51.776;22.638;2023-04-25T00:25:16;10.10;99.90
37158;DHT22;23050;51.776;22.638;2023-04-25T00:27:41;10.10;99.90
37158;DHT22;23050;51.776;22.638;2023-04-25T00:30:07;10.10;99.90
37158;DHT22;23050;51.776;22.638;2023-04-25T00:32:33;10.10;99.90
37158;DHT22;23050;51.776;22.638;2023-04-25T00:34:58;10.10;99.90
37158;DHT22;23050;51.776;22.638;2023-04-25T00:37:24;10.00;99.90
37158;DHT22;23050;51.776;22.638;2023-04-25T00:39:50;10.00;99.90
37158;DHT22;23050;51.776;22.638;2023-04-25T00:42:15;10.00;99.90
37158;DHT22;23050;51.776;22.638;2023-04-25T00:44:41;10.00;99.90
37158;DHT22;23050;51.776;22.638;2023-04-25T00:47:07;10.00;99.90
37158;DHT22;23050;51.776;22.638;2023-04-25T00:49:33;10.00;99.90
37158;DHT22;23050;51.776;22.638;2023-04-25T00:51:58;9.90;99.90
37158;DHT22;23050;51.776;22.638;2023-04-25T00:54:24;10.00;99.90
37158;DHT22;23050;51.776;22.638;2023-04-25T00:56:50;10.00;99.90
37158;DHT22;23050;51.776;22.638;2023-04-25T00:59:15;10.00;99.90
37158;DHT22;23050;51.776;22.638;2023-04-25T01:01:42;9.90;99.90
37158;DHT22;23050;51.776;22.638;2023-04-25T01:04:08;9.90;99.90
37158;DHT22;23050;51.776;22.638;2023-04-25T01:06:33;9.80;99.90
37158;DHT22;23050;51.776;22.638;2023-04-25T01:08:58;9.70;99.90
37158;DHT22;23050;51.776;22.638;2023-04-25T01:11:24;9.70;99.90
37158;DHT22;23050;51.776;22.638;2023-04-25T01:13:50;9.60;99.90
37158;DHT22;23050;51.776;22.638;2023-04-25T01:16:16;9.70;99.90
37158;DHT22;23050;51.776;22.638;2023-04-25T01:18:41;9.70;99.90
37158;DHT22;23050;51.776;22.638;2023-04-25T01:21:08;9.70;99.90
37158;DHT22;23050;51.776;22.638;2023-04-25T01:23:35;9.70;99.90
37158;DHT22;23050;51.776;22.638;2023-04-25T01:26:01;9.70;99.90
37158;DHT22;23050;51.776;22.638;2023-04-25T01:28:27;9.70;99.90
37158;DHT22;23050;51.776;22.638;2023-04-25T01:30:52;9.70;99.90
37158;DHT22;23050;51.776;22.638;2023-04-25T01:33:18;9.70;99.90
37158;DHT22;23050;51.776;22.638;2023-04-25T01:35:44;9.70;99.90
37158;DHT22;23050;51.776;22.638;2023-04-25T01:38:09;9.60;99.90
37158;DHT22;23050;51.776;22.638;2023-04-25T01:40:37;9.60;99.90
37158;DHT22;23050;51.776;22.638;2023-04-25T01:43:03;9.60;99.90
37158;DHT22;23050;51.776;22.638;2023-04-25T01:45:28;9.60;99.90
37158;DHT22;23050;51.776;22.638;2023-04-25T01:47:54;9.70;99.90
37158;DHT22;23050;51.776;22.638;2023-04-25T01:50:20;9.70;99.90
37158;DHT22;23050;51.776;22.638;2023-04-25T01:52:45;9.80;99.90
37158;DHT22;23050;51.776;22.638;2023-04-25T01:55:11;9.70;99.90
37158;DHT22;23050;51.776;22.638;2023-04-25T01:57:36;9.60;99.90
37158;DHT22;23050;51.776;22.638;2023-04-25T02:00:03;9.70;99.90
37158;DHT22;23050;51.776;22.638;2023-04-25T02:02:31;9.60;99.90
37158;DHT22;23050;51.776;22.638;2023-04-25T02:04:56;9.60;99.90
37158;DHT22;23050;51.776;22.638;2023-04-25T02:07:21;9.60;99.90
37158;DHT22;23050;51.776;22.638;2023-04-25T02:09:47;9.60;99.90
37158;DHT22;23050;51.776;22.638;2023-04-25T02:12:12;9.60;99.90
37158;DHT22;23050;51.776;22.638;2023-04-25T02:14:38;9.60;99.90
37158;DHT22;23050;51.776;22.638;2023-04-25T02:17:03;9.60;99.90
37158;DHT22;23050;51.776;22.638;2023-04-25T02:19:29;9.60;99.90
37158;DHT22;23050;51.776;22.638;2023-04-25T02:21:54;9.60;99.90
37158;DHT22;23050;51.776;22.638;2023-04-25T02:24:20;9.60;99.90
37158;DHT22;23050;51.776;22.638;2023-04-25T02:26:45;9.70;99.90
37158;DHT22;23050;51.776;22.638;2023-04-25T02:29:12;9.70;99.90
37158;DHT22;23050;51.776;22.638;2023-04-25T02:31:37;9.70;99.90
37158;DHT22;23050;51.776;22.638;2023-04-25T02:34:03;9.70;99.90
37158;DHT22;23050;51.776;22.638;2023-04-25T02:36:28;9.70;99.90
37158;DHT22;23050;51.776;22.638;2023-04-25T02:38:57;9.80;99.90
37158;DHT22;23050;51.776;22.638;2023-04-25T02:41:22;9.90;99.90
37158;DHT22;23050;51.776;22.638;2023-04-25T02:43:48;9.80;99.90
37158;DHT22;23050;51.776;22.638;2023-04-25T02:46:13;10.00;99.90
37158;DHT22;23050;51.776;22.638;2023-04-25T02:48:39;9.90;99.90
37158;DHT22;23050;51.776;22.638;2023-04-25T02:51:05;9.90;99.90
37158;DHT22;23050;51.776;22.638;2023-04-25T02:53:30;9.90;99.90
37158;DHT22;23050;51.776;22.638;2023-04-25T02:55:56;9.90;99.90
37158;DHT22;23050;51.776;22.638;2023-04-25T02:58:23;9.90;99.90
37158;DHT22;23050;51.776;22.638;2023-04-25T03:00:49;9.80;99.90
37158;DHT22;23050;51.776;22.638;2023-04-25T03:03:14;9.80;99.90
37158;DHT22;23050;51.776;22.638;2023-04-25T03:05:42;9.80;99.90
37158;DHT22;23050;51.776;22.638;2023-04-25T03:08:08;9.70;99.90
37158;DHT22;23050;51.776;22.638;2023-04-25T03:10:33;9.80;99.90
37158;DHT22;23050;51.776;22.638;2023-04-25T03:12:59;9.70;99.90
37158;DHT22;23050;51.776;22.638;2023-04-25T03:15:24;9.80;99.90
37158;DHT22;23050;51.776;22.638;2023-04-25T03:17:50;9.80;99.90
37158;DHT22;23050;51.776;22.638;2023-04-25T03:20:15;9.70;99.90
37158;DHT22;23050;51.776;22.638;2023-04-25T03:22:41;9.70;99.90
37158;DHT22;23050;51.776;22.638;2023-04-25T03:25:06;9.70;99.90
37158;DHT22;23050;51.776;22.638;2023-04-25T03:27:32;9.70;99.90
37158;DHT22;23050;51.776;22.638;2023-04-25T03:29:57;9.70;99.90
37158;DHT22;23050;51.776;22.638;2023-04-25T03:32:23;9.80;99.90
37158;DHT22;23050;51.776;22.638;2023-04-25T03:34:48;9.80;99.90
37158;DHT22;23050;51.776;22.638;2023-04-25T03:37:14;9.80;99.90
37158;DHT22;23050;51.776;22.638;2023-04-25T03:39:39;9.80;99.90
37158;DHT22;23050;51.776;22.638;2023-04-25T03:42:05;9.80;99.90
37158;DHT22;23050;51.776;22.638;2023-04-25T03:44:30;9.80;99.90
37158;DHT22;23050;51.776;22.638;2023-04-25T03:46:56;9.80;99.90
37158;DHT22;23050;51.776;22.638;2023-04-25T03:49:21;9.80;99.90
37158;DHT22;23050;51.776;22.638;2023-04-25T03:51:47;9.80;99.90
37158;DHT22;23050;51.776;22.638;2023-04-25T03:54:12;9.90;99.90
37158;DHT22;23050;51.776;22.638;2023-04-25T03:56:38;9.90;99.90
37158;DHT22;23050;51.776;22.638;2023-04-25T03:59:03;9.80;99.90
37158;DHT22;23050;51.776;22.638;2023-04-25T04:01:29;10.00;99.90
37158;DHT22;23050;51.776;22.638;2023-04-25T04:03:54;9.90;99.90
37158;DHT22;23050;51.776;22.638;2023-04-25T04:06:20;10.00;99.90
37158;DHT22;23050;51.776;22.638;2023-04-25T04:08:46;10.00;99.90
37158;DHT22;23050;51.776;22.638;2023-04-25T04:11:11;10.10;99.90
37158;DHT22;23050;51.776;22.638;2023-04-25T04:13:37;10.10;99.90
37158;DHT22;23050;51.776;22.638;2023-04-25T04:16:02;10.20;99.90
37158;DHT22;23050;51.776;22.638;2023-04-25T04:18:29;10.20;99.90
37158;DHT22;23050;51.776;22.638;2023-04-25T04:20:55;10.20;99.90
37158;DHT22;23050;51.776;22.638;2023-04-25T04:23:23;10.20;99.90
37158;DHT22;23050;51.776;22.638;2023-04-25T04:25:48;10.20;99.90
37158;DHT22;23050;51.776;22.638;2023-04-25T04:28:14;10.10;99.90
37158;DHT22;23050;51.776;22.638;2023-04-25T04:30:41;10.20;99.90
37158;DHT22;23050;51.776;22.638;2023-04-25T04:33:08;10.20;99.90
37158;DHT22;23050;51.776;22.638;2023-04-25T04:35:33;10.20;99.90
37158;DHT22;23050;51.776;22.638;2023-04-25T04:37:59;10.30;99.90
37158;DHT22;23050;51.776;22.638;2023-04-25T04:40:24;10.30;99.90
37158;DHT22;23050;51.776;22.638;2023-04-25T04:42:50;10.40;99.90
37158;DHT22;23050;51.776;22.638;2023-04-25T04:45:16;10.50;99.90
37158;DHT22;23050;51.776;22.638;2023-04-25T04:47:42;10.60;99.90
37158;DHT22;23050;51.776;22.638;2023-04-25T04:50:08;10.70;99.90
37158;DHT22;23050;51.776;22.638;2023-04-25T04:52:35;10.70;99.90
37158;DHT22;23050;51.776;22.638;2023-04-25T04:55:01;11.10;99.90
37158;DHT22;23050;51.776;22.638;2023-04-25T04:57:27;11.80;99.90
37158;DHT22;23050;51.776;22.638;2023-04-25T04:59:52;12.70;99.90
37158;DHT22;23050;51.776;22.638;2023-04-25T05:02:18;13.50;99.90
37158;DHT22;23050;51.776;22.638;2023-04-25T05:04:43;13.70;99.90
37158;DHT22;23050;51.776;22.638;2023-04-25T05:07:09;13.90;99.90
37158;DHT22;23050;51.776;22.638;2023-04-25T05:09:35;13.90;99.90
37158;DHT22;23050;51.776;22.638;2023-04-25T05:12:00;14.20;99.90
37158;DHT22;23050;51.776;22.638;2023-04-25T05:14:26;14.80;99.90
37158;DHT22;23050;51.776;22.638;2023-04-25T05:16:51;14.90;99.90
37158;DHT22;23050;51.776;22.638;2023-04-25T05:19:17;15.60;96.50
37158;DHT22;23050;51.776;22.638;2023-04-25T05:21:42;16.10;87.70
37158;DHT22;23050;51.776;22.638;2023-04-25T05:24:08;15.80;84.20
37158;DHT22;23050;51.776;22.638;2023-04-25T05:26:34;15.50;91.20
37158;DHT22;23050;51.776;22.638;2023-04-25T05:28:59;15.00;95.10
37158;DHT22;23050;51.776;22.638;2023-04-25T05:31:25;15.00;99.90
37158;DHT22;23050;51.776;22.638;2023-04-25T05:33:51;15.30;98.60
37158;DHT22;23050;51.776;22.638;2023-04-25T05:36:17;16.20;91.00
37158;DHT22;23050;51.776;22.638;2023-04-25T05:38:42;16.60;65.90
37158;DHT22;23050;51.776;22.638;2023-04-25T05:41:08;16.30;66.10
37158;DHT22;23050;51.776;22.638;2023-04-25T05:43:33;16.40;67.40
37158;DHT22;23050;51.776;22.638;2023-04-25T05:45:59;15.80;72.80
37158;DHT22;23050;51.776;22.638;2023-04-25T05:48:25;15.80;87.20
37158;DHT22;23050;51.776;22.638;2023-04-25T05:50:50;15.80;90.10
37158;DHT22;23050;51.776;22.638;2023-04-25T05:53:17;15.80;93.30
37158;DHT22;23050;51.776;22.638;2023-04-25T05:55:42;15.80;96.10
37158;DHT22;23050;51.776;22.638;2023-04-25T05:58:08;15.80;97.00
37158;DHT22;23050;51.776;22.638;2023-04-25T06:00:33;15.70;98.50
37158;DHT22;23050;51.776;22.638;2023-04-25T06:02:59;15.40;99.90
37158;DHT22;23050;51.776;22.638;2023-04-25T06:05:24;15.20;99.90
37158;DHT22;23050;51.776;22.638;2023-04-25T06:07:50;14.90;99.90
37158;DHT22;23050;51.776;22.638;2023-04-25T06:10:15;14.80;99.90
37158;DHT22;23050;51.776;22.638;2023-04-25T06:12:41;14.50;99.90
37158;DHT22;23050;51.776;22.638;2023-04-25T06:15:06;14.50;99.90
37158;DHT22;23050;51.776;22.638;2023-04-25T06:17:32;14.60;99.90
37158;DHT22;23050;51.776;22.638;2023-04-25T06:19:58;14.70;99.90
37158;DHT22;23050;51.776;22.638;2023-04-25T06:22:23;14.70;99.90
37158;DHT22;23050;51.776;22.638;2023-04-25T06:24:49;14.60;99.90
37158;DHT22;23050;51.776;22.638;2023-04-25T06:27:14;14.50;99.90
37158;DHT22;23050;51.776;22.638;2023-04-25T06:29:39;14.60;99.90
37158;DHT22;23050;51.776;22.638;2023-04-25T06:32:05;14.60;99.90
37158;DHT22;23050;51.776;22.638;2023-04-25T06:34:30;14.80;99.90
37158;DHT22;23050;51.776;22.638;2023-04-25T06:36:56;14.50;99.90
37158;DHT22;23050;51.776;22.638;2023-04-25T06:39:21;14.50;99.90
37158;DHT22;23050;51.776;22.638;2023-04-25T06:41:48;14.60;99.90
37158;DHT22;23050;51.776;22.638;2023-04-25T06:44:14;14.60;99.90
37158;DHT22;23050;51.776;22.638;2023-04-25T06:46:40;14.40;99.90
37158;DHT22;23050;51.776;22.638;2023-04-25T06:49:06;14.30;99.90
37158;DHT22;23050;51.776;22.638;2023-04-25T06:51:31;14.30;99.90
37158;DHT22;23050;51.776;22.638;2023-04-25T06:53:57;14.30;99.90
37158;DHT22;23050;51.776;22.638;2023-04-25T06:56:22;14.40;99.90
37158;DHT22;23050;51.776;22.638;2023-04-25T06:58:48;14.40;99.90
37158;DHT22;23050;51.776;22.638;2023-04-25T07:01:14;14.40;99.90
37158;DHT22;23050;51.776;22.638;2023-04-25T07:03:40;14.40;99.90
37158;DHT22;23050;51.776;22.638;2023-04-25T07:06:05;14.40;99.90
37158;DHT22;23050;51.776;22.638;2023-04-25T07:08:31;14.50;99.90
37158;DHT22;23050;51.776;22.638;2023-04-25T07:10:56;14.50;99.90
37158;DHT22;23050;51.776;22.638;2023-04-25T07:13:22;14.30;99.90
37158;DHT22;23050;51.776;22.638;2023-04-25T07:15:47;14.10;99.90
37158;DHT22;23050;51.776;22.638;2023-04-25T07:18:13;14.00;99.90
37158;DHT22;23050;51.776;22.638;2023-04-25T07:20:39;13.90;99.90
37158;DHT22;23050;51.776;22.638;2023-04-25T07:23:05;13.80;99.90
37158;DHT22;23050;51.776;22.638;2023-04-25T07:25:30;13.80;99.90
37158;DHT22;23050;51.776;22.638;2023-04-25T07:27:56;13.70;99.90
37158;DHT22;23050;51.776;22.638;2023-04-25T07:30:21;13.80;99.90
37158;DHT22;23050;51.776;22.638;2023-04-25T07:32:48;13.90;99.90
37158;DHT22;23050;51.776;22.638;2023-04-25T07:35:13;14.00;99.90
37158;DHT22;23050;51.776;22.638;2023-04-25T07:37:39;14.10;99.90
37158;DHT22;23050;51.776;22.638;2023-04-25T07:40:05;14.10;99.90
37158;DHT22;23050;51.776;22.638;2023-04-25T07:42:30;14.20;99.90
37158;DHT22;23050;51.776;22.638;2023-04-25T07:44:56;14.30;99.90
37158;DHT22;23050;51.776;22.638;2023-04-25T07:47:21;14.30;99.90
37158;DHT22;23050;51.776;22.638;2023-04-25T07:49:47;14.20;99.90
37158;DHT22;23050;51.776;22.638;2023-04-25T07:52:12;14.20;99.90
37158;DHT22;23050;51.776;22.638;2023-04-25T07:54:38;14.20;99.90
37158;DHT22;23050;51.776;22.638;2023-04-25T07:57:03;14.20;99.90
37158;DHT22;23050;51.776;22.638;2023-04-25T07:59:29;14.20;99.90
37158;DHT22;23050;51.776;22.638;2023-04-25T08:01:54;14.10;99.90
37158;DHT22;23050;51.776;22.638;2023-04-25T08:04:20;14.10;99.90
37158;DHT22;23050;51.776;22.638;2023-04-25T08:06:46;14.00;99.90
37158;DHT22;23050;51.776;22.638;2023-04-25T08:09:11;14.00;99.90
37158;DHT22;23050;51.776;22.638;2023-04-25T08:11:36;14.10;99.90
37158;DHT22;23050;51.776;22.638;2023-04-25T08:14:02;14.40;99.90
37158;DHT22;23050;51.776;22.638;2023-04-25T08:16:28;14.50;99.90
37158;DHT22;23050;51.776;22.638;2023-04-25T08:18:53;14.50;99.90
37158;DHT22;23050;51.776;22.638;2023-04-25T08:21:19;14.60;99.90
37158;DHT22;23050;51.776;22.638;2023-04-25T08:23:45;14.80;99.90
37158;DHT22;23050;51.776;22.638;2023-04-25T08:26:10;14.70;99.90
37158;DHT22;23050;51.776;22.638;2023-04-25T08:28:36;14.60;99.90
37158;DHT22;23050;51.776;22.638;2023-04-25T08:31:01;14.60;99.90
37158;DHT22;23050;51.776;22.638;2023-04-25T08:33:27;14.60;99.90
37158;DHT22;23050;51.776;22.638;2023-04-25T08:35:52;14.60;99.90
37158;DHT22;23050;51.776;22.638;2023-04-25T08:38:18;14.30;99.90
37158;DHT22;23050;51.776;22.638;2023-04-25T08:40:43;14.20;99.90
37158;DHT22;23050;51.776;22.638;2023-04-25T08:43:09;14.10;99.90
37158;DHT22;23050;51.776;22.638;2023-04-25T08:45:39;14.10;99.90
37158;DHT22;23050;51.776;22.638;2023-04-25T08:48:10;14.20;99.90
37158;DHT22;23050;51.776;22.638;2023-04-25T08:50:37;14.30;99.90
37158;DHT22;23050;51.776;22.638;2023-04-25T08:53:04;14.30;99.90
37158;DHT22;23050;51.776;22.638;2023-04-25T08:55:29;14.30;99.90
37158;DHT22;23050;51.776;22.638;2023-04-25T08:57:55;14.50;99.90
37158;DHT22;23050;51.776;22.638;2023-04-25T09:00:21;14.40;99.90
37158;DHT22;23050;51.776;22.638;2023-04-25T09:02:47;14.20;99.90
37158;DHT22;23050;51.776;22.638;2023-04-25T09:05:13;14.20;99.90
37158;DHT22;23050;51.776;22.638;2023-04-25T09:07:38;14.30;99.90
37158;DHT22;23050;51.776;22.638;2023-04-25T09:10:04;14.20;99.90
37158;DHT22;23050;51.776;22.638;2023-04-25T09:12:30;14.20;99.90
37158;DHT22;23050;51.776;22.638;2023-04-25T09:17:31;14.20;99.90
37158;DHT22;23050;51.776;22.638;2023-04-25T09:20:07;14.40;99.90
37158;DHT22;23050;51.776;22.638;2023-04-25T09:22:34;14.70;99.90
37158;DHT22;23050;51.776;22.638;2023-04-25T09:25:01;14.80;99.90
37158;DHT22;23050;51.776;22.638;2023-04-25T09:27:27;14.80;99.90
37158;DHT22;23050;51.776;22.638;2023-04-25T09:29:59;14.80;99.90
37158;DHT22;23050;51.776;22.638;2023-04-25T09:32:26;14.80;99.90
37158;DHT22;23050;51.776;22.638;2023-04-25T09:34:52;15.20;99.90
37158;DHT22;23050;51.776;22.638;2023-04-25T09:37:19;15.30;99.90
37158;DHT22;23050;51.776;22.638;2023-04-25T09:39:46;15.40;99.90
37158;DHT22;23050;51.776;22.638;2023-04-25T09:42:14;15.40;99.90
37158;DHT22;23050;51.776;22.638;2023-04-25T09:44:44;15.50;99.90
37158;DHT22;23050;51.776;22.638;2023-04-25T09:47:10;15.40;99.90
37158;DHT22;23050;51.776;22.638;2023-04-25T09:49:38;15.40;99.90
37158;DHT22;23050;51.776;22.638;2023-04-25T09:52:04;15.40;99.90
37158;DHT22;23050;51.776;22.638;2023-04-25T09:54:29;15.60;99.90
37158;DHT22;23050;51.776;22.638;2023-04-25T09:56:55;15.90;99.90
37158;DHT22;23050;51.776;22.638;2023-04-25T09:59:21;16.20;99.90
37158;DHT22;23050;51.776;22.638;2023-04-25T10:01:48;16.40;99.90
37158;DHT22;23050;51.776;22.638;2023-04-25T10:04:14;16.50;99.90
37158;DHT22;23050;51.776;22.638;2023-04-25T10:06:41;16.50;96.80
37158;DHT22;23050;51.776;22.638;2023-04-25T10:09:08;16.80;90.90
37158;DHT22;23050;51.776;22.638;2023-04-25T10:11:33;17.20;82.40
37158;DHT22;23050;51.776;22.638;2023-04-25T10:13:59;17.70;70.70
37158;DHT22;23050;51.776;22.638;2023-04-25T10:16:25;18.20;31.20
37158;DHT22;23050;51.776;22.638;2023-04-25T10:18:51;18.00;38.50
37158;DHT22;23050;51.776;22.638;2023-04-25T10:21:17;17.80;65.30
37158;DHT22;23050;51.776;22.638;2023-04-25T10:23:43;18.00;77.40
37158;DHT22;23050;51.776;22.638;2023-04-25T10:26:08;18.10;56.30
37158;DHT22;23050;51.776;22.638;2023-04-25T10:31:44;18.00;59.50
37158;DHT22;23050;51.776;22.638;2023-04-25T10:34:10;17.90;57.80
37158;DHT22;23050;51.776;22.638;2023-04-25T10:36:35;17.60;16.90
37158;DHT22;23050;51.776;22.638;2023-04-25T10:39:05;17.40;1.60
37158;DHT22;23050;51.776;22.638;2023-04-25T10:41:55;16.80;12.00
37158;DHT22;23050;51.776;22.638;2023-04-25T10:44:21;16.50;30.70
37158;DHT22;23050;51.776;22.638;2023-04-25T10:46:46;16.20;52.00
37158;DHT22;23050;51.776;22.638;2023-04-25T10:49:28;16.00;63.50
37158;DHT22;23050;51.776;22.638;2023-04-25T10:51:58;16.40;69.30
37158;DHT22;23050;51.776;22.638;2023-04-25T10:54:39;16.60;53.80
37158;DHT22;23050;51.776;22.638;2023-04-25T10:57:05;16.40;47.80
37158;DHT22;23050;51.776;22.638;2023-04-25T10:59:30;16.20;56.30
37158;DHT22;23050;51.776;22.638;2023-04-25T11:01:56;16.00;74.80
37158;DHT22;23050;51.776;22.638;2023-04-25T11:04:25;15.90;82.80
37158;DHT22;23050;51.776;22.638;2023-04-25T11:09:29;16.00;73.40
37158;DHT22;23050;51.776;22.638;2023-04-25T11:11:55;16.00;82.30
37158;DHT22;23050;51.776;22.638;2023-04-25T11:14:21;16.10;81.70
37158;DHT22;23050;51.776;22.638;2023-04-25T11:16:47;16.20;84.30
37158;DHT22;23050;51.776;22.638;2023-04-25T11:19:12;16.30;69.10
37158;DHT22;23050;51.776;22.638;2023-04-25T11:21:38;16.10;64.90
37158;DHT22;23050;51.776;22.638;2023-04-25T11:24:03;16.00;74.10
37158;DHT22;23050;51.776;22.638;2023-04-25T11:26:29;16.00;76.50
37158;DHT22;23050;51.776;22.638;2023-04-25T11:28:58;16.00;79.20
37158;DHT22;23050;51.776;22.638;2023-04-25T11:31:26;15.90;80.80
37158;DHT22;23050;51.776;22.638;2023-04-25T11:33:58;15.60;84.30
37158;DHT22;23050;51.776;22.638;2023-04-25T11:36:24;15.30;94.00
37158;DHT22;23050;51.776;22.638;2023-04-25T11:38:53;14.90;99.90
37158;DHT22;23050;51.776;22.638;2023-04-25T11:41:19;14.20;99.90
37158;DHT22;23050;51.776;22.638;2023-04-25T11:43:45;13.80;99.90
37158;DHT22;23050;51.776;22.638;2023-04-25T11:46:11;13.50;99.90
37158;DHT22;23050;51.776;22.638;2023-04-25T11:48:39;13.20;99.90
37158;DHT22;23050;51.776;22.638;2023-04-25T11:51:05;13.10;99.90
37158;DHT22;23050;51.776;22.638;2023-04-25T11:53:31;13.10;99.90
37158;DHT22;23050;51.776;22.638;2023-04-25T11:55:58;13.00;99.90
37158;DHT22;23050;51.776;22.638;2023-04-25T11:58:24;13.00;99.90
37158;DHT22;23050;51.776;22.638;2023-04-25T12:00:50;13.10;99.90
37158;DHT22;23050;51.776;22.638;2023-04-25T12:03:17;13.10;99.90
37158;DHT22;23050;51.776;22.638;2023-04-25T12:05:42;13.30;99.90
37158;DHT22;23050;51.776;22.638;2023-04-25T12:08:10;13.40;99.90
37158;DHT22;23050;51.776;22.638;2023-04-25T12:10:37;13.40;99.90
37158;DHT22;23050;51.776;22.638;2023-04-25T12:13:20;13.50;99.90
37158;DHT22;23050;51.776;22.638;2023-04-25T12:15:54;13.50;99.90
37158;DHT22;23050;51.776;22.638;2023-04-25T12:18:27;13.60;99.90
37158;DHT22;23050;51.776;22.638;2023-04-25T12:20:58;13.80;99.90
37158;DHT22;23050;51.776;22.638;2023-04-25T12:23:31;13.90;99.90
37158;DHT22;23050;51.776;22.638;2023-04-25T12:25:59;14.10;99.90
37158;DHT22;23050;51.776;22.638;2023-04-25T12:28:28;14.40;99.90
37158;DHT22;23050;51.776;22.638;2023-04-25T12:31:02;14.60;99.90
37158;DHT22;23050;51.776;22.638;2023-04-25T12:33:37;14.70;99.90
37158;DHT22;23050;51.776;22.638;2023-04-25T12:36:04;14.70;99.90
37158;DHT22;23050;51.776;22.638;2023-04-25T12:38:38;14.70;99.90
37158;DHT22;23050;51.776;22.638;2023-04-25T12:41:04;14.70;99.90
37158;DHT22;23050;51.776;22.638;2023-04-25T12:43:29;14.60;99.90
37158;DHT22;23050;51.776;22.638;2023-04-25T12:46:11;14.50;99.90
37158;DHT22;23050;51.776;22.638;2023-04-25T12:48:37;14.30;99.90
37158;DHT22;23050;51.776;22.638;2023-04-25T12:51:03;14.10;99.90
37158;DHT22;23050;51.776;22.638;2023-04-25T12:53:30;13.80;99.90
37158;DHT22;23050;51.776;22.638;2023-04-25T12:55:55;13.70;99.90
37158;DHT22;23050;51.776;22.638;2023-04-25T12:58:28;13.60;99.90
37158;DHT22;23050;51.776;22.638;2023-04-25T13:00:56;13.50;99.90
37158;DHT22;23050;51.776;22.638;2023-04-25T13:03:24;13.40;99.90
37158;DHT22;23050;51.776;22.638;2023-04-25T13:05:51;13.20;99.90
37158;DHT22;23050;51.776;22.638;2023-04-25T13:08:18;13.10;99.90
37158;DHT22;23050;51.776;22.638;2023-04-25T13:10:43;13.00;99.90
37158;DHT22;23050;51.776;22.638;2023-04-25T13:13:09;13.00;99.90
37158;DHT22;23050;51.776;22.638;2023-04-25T13:15:34;12.90;99.90
37158;DHT22;23050;51.776;22.638;2023-04-25T13:18:00;12.90;99.90
37158;DHT22;23050;51.776;22.638;2023-04-25T13:20:26;12.90;99.90
37158;DHT22;23050;51.776;22.638;2023-04-25T13:22:51;13.00;99.90
37158;DHT22;23050;51.776;22.638;2023-04-25T13:25:17;13.10;99.90
37158;DHT22;23050;51.776;22.638;2023-04-25T13:27:42;13.10;99.90
37158;DHT22;23050;51.776;22.638;2023-04-25T13:30:09;13.10;99.90
37158;DHT22;23050;51.776;22.638;2023-04-25T13:32:35;13.20;99.90
37158;DHT22;23050;51.776;22.638;2023-04-25T13:35:01;13.30;99.90
37158;DHT22;23050;51.776;22.638;2023-04-25T13:37:27;13.40;99.90
37158;DHT22;23050;51.776;22.638;2023-04-25T13:39:55;13.40;99.90
37158;DHT22;23050;51.776;22.638;2023-04-25T13:42:21;13.50;99.90
37158;DHT22;23050;51.776;22.638;2023-04-25T13:44:47;13.50;99.90
37158;DHT22;23050;51.776;22.638;2023-04-25T13:47:12;13.60;99.90
37158;DHT22;23050;51.776;22.638;2023-04-25T13:49:38;13.60;99.90
37158;DHT22;23050;51.776;22.638;2023-04-25T13:52:03;13.60;99.90
37158;DHT22;23050;51.776;22.638;2023-04-25T13:54:29;13.50;99.90
37158;DHT22;23050;51.776;22.638;2023-04-25T13:56:54;13.30;99.90
37158;DHT22;23050;51.776;22.638;2023-04-25T13:59:23;13.20;99.90
37158;DHT22;23050;51.776;22.638;2023-04-25T14:01:49;13.20;99.90
37158;DHT22;23050;51.776;22.638;2023-04-25T14:04:15;13.20;99.90
37158;DHT22;23050;51.776;22.638;2023-04-25T14:06:40;13.00;99.90
37158;DHT22;23050;51.776;22.638;2023-04-25T14:09:06;13.00;99.90
37158;DHT22;23050;51.776;22.638;2023-04-25T14:11:38;12.80;99.90
37158;DHT22;23050;51.776;22.638;2023-04-25T14:14:03;12.70;99.90
37158;DHT22;23050;51.776;22.638;2023-04-25T14:16:29;12.60;99.90
37158;DHT22;23050;51.776;22.638;2023-04-25T14:18:55;12.40;99.90
37158;DHT22;23050;51.776;22.638;2023-04-25T14:21:21;12.40;99.90
37158;DHT22;23050;51.776;22.638;2023-04-25T14:23:47;12.40;99.90
37158;DHT22;23050;51.776;22.638;2023-04-25T14:26:12;12.40;99.90
37158;DHT22;23050;51.776;22.638;2023-04-25T14:28:38;12.30;99.90
37158;DHT22;23050;51.776;22.638;2023-04-25T14:31:03;12.20;99.90
37158;DHT22;23050;51.776;22.638;2023-04-25T14:33:29;12.10;99.90
37158;DHT22;23050;51.776;22.638;2023-04-25T14:35:55;12.10;99.90
37158;DHT22;23050;51.776;22.638;2023-04-25T14:38:21;12.10;99.90
37158;DHT22;23050;51.776;22.638;2023-04-25T14:40:48;12.10;99.90
37158;DHT22;23050;51.776;22.638;2023-04-25T14:43:14;12.00;99.90
37158;DHT22;23050;51.776;22.638;2023-04-25T14:45:40;12.00;99.90
37158;DHT22;23050;51.776;22.638;2023-04-25T14:48:05;12.00;99.90
37158;DHT22;23050;51.776;22.638;2023-04-25T14:50:31;11.90;99.90
37158;DHT22;23050;51.776;22.638;2023-04-25T14:52:57;11.90;99.90
37158;DHT22;23050;51.776;22.638;2023-04-25T14:55:24;11.90;99.90
37158;DHT22;23050;51.776;22.638;2023-04-25T14:57:50;11.80;99.90
37158;DHT22;23050;51.776;22.638;2023-04-25T15:00:15;11.70;99.90
37158;DHT22;23050;51.776;22.638;2023-04-25T15:02:41;11.70;99.90
37158;DHT22;23050;51.776;22.638;2023-04-25T15:05:07;11.60;99.90
37158;DHT22;23050;51.776;22.638;2023-04-25T15:07:33;11.50;99.90
37158;DHT22;23050;51.776;22.638;2023-04-25T15:10:00;11.50;99.90
37158;DHT22;23050;51.776;22.638;2023-04-25T15:12:25;11.50;99.90
37158;DHT22;23050;51.776;22.638;2023-04-25T15:14:53;11.40;99.90
37158;DHT22;23050;51.776;22.638;2023-04-25T15:17:19;11.40;99.90
37158;DHT22;23050;51.776;22.638;2023-04-25T15:19:44;11.30;99.90
37158;DHT22;23050;51.776;22.638;2023-04-25T15:22:10;11.30;99.90